sensor_id;sensor_type;location;lat;lon;timestamp;temperature;humidity
8633;DHT22;4354;49.832;10.746;2022-12-10T00:01:19;-3.60;99.90
8633;DHT22;4354;49.832;10.746;2022-12-10T00:03:46;-3.60;99.90
8633;DHT22;4354;49.832;10.746;2022-12-10T00:06:16;-3.60;99.90
8633;DHT22;4354;49.832;10.746;2022-12-10T00:08:43;-3.70;99.90
8633;DHT22;4354;49.832;10.746;2022-12-10T00:11:12;-3.70;99.90
8633;DHT22;4354;49.832;10.746;2022-12-10T00:13:39;-3.70;99.90
8633;DHT22;4354;49.832;10.746;2022-12-10T00:16:09;-3.70;99.90
8633;DHT22;4354;49.832;10.746;2022-12-10T00:18:37;-3.70;99.90
8633;DHT22;4354;49.832;10.746;2022-12-10T00:21:06;-3.80;99.90
8633;DHT22;4354;49.832;10.746;2022-12-10T00:23:33;-3.80;99.90
8633;DHT22;4354;49.832;10.746;2022-12-10T00:26:07;-3.90;99.90
8633;DHT22;4354;49.832;10.746;2022-12-10T00:28:34;-3.90;99.90
8633;DHT22;4354;49.832;10.746;2022-12-10T00:31:06;-3.90;99.90
8633;DHT22;4354;49.832;10.746;2022-12-10T00:33:34;-4.00;99.90
8633;DHT22;4354;49.832;10.746;2022-12-10T00:36:03;-3.90;99.90
8633;DHT22;4354;49.832;10.746;2022-12-10T00:38:30;-3.90;99.90
8633;DHT22;4354;49.832;10.746;2022-12-10T00:40:57;-4.00;99.90
8633;DHT22;4354;49.832;10.746;2022-12-10T00:43:24;-4.00;99.90
8633;DHT22;4354;49.832;10.746;2022-12-10T00:45:52;-4.00;99.90
8633;DHT22;4354;49.832;10.746;2022-12-10T00:48:19;-4.00;99.90
8633;DHT22;4354;49.832;10.746;2022-12-10T00:53:24;-4.20;99.90
8633;DHT22;4354;49.832;10.746;2022-12-10T00:55:51;-4.20;99.90
8633;DHT22;4354;49.832;10.746;2022-12-10T00:58:18;-4.30;99.90
8633;DHT22;4354;49.832;10.746;2022-12-10T01:00:45;-4.30;99.90
8633;DHT22;4354;49.832;10.746;2022-12-10T01:03:13;-4.40;99.90
8633;DHT22;4354;49.832;10.746;2022-12-10T01:05:39;-4.50;99.90
8633;DHT22;4354;49.832;10.746;2022-12-10T01:08:06;-4.50;99.90
8633;DHT22;4354;49.832;10.746;2022-12-10T01:10:33;-4.60;99.90
8633;DHT22;4354;49.832;10.746;2022-12-10T01:13:00;-4.50;99.90
8633;DHT22;4354;49.832;10.746;2022-12-10T01:15:27;-4.50;99.90
8633;DHT22;4354;49.832;10.746;2022-12-10T01:17:54;-4.40;99.90
8633;DHT22;4354;49.832;10.746;2022-12-10T01:20:20;-4.40;99.90
8633;DHT22;4354;49.832;10.746;2022-12-10T01:22:47;-4.40;99.90
8633;DHT22;4354;49.832;10.746;2022-12-10T01:25:14;-4.40;99.90
8633;DHT22;4354;49.832;10.746;2022-12-10T01:27:41;-4.40;99.90
8633;DHT22;4354;49.832;10.746;2022-12-10T01:30:08;-4.40;99.90
8633;DHT22;4354;49.832;10.746;2022-12-10T01:32:36;-4.50;99.90
8633;DHT22;4354;49.832;10.746;2022-12-10T01:35:03;-4.60;99.90
8633;DHT22;4354;49.832;10.746;2022-12-10T01:37:30;-4.70;99.90
8633;DHT22;4354;49.832;10.746;2022-12-10T01:39:56;-4.70;99.90
8633;DHT22;4354;49.832;10.746;2022-12-10T01:42:23;-4.70;99.90
8633;DHT22;4354;49.832;10.746;2022-12-10T01:44:57;-4.70;99.90
8633;DHT22;4354;49.832;10.746;2022-12-10T01:47:24;-4.70;99.90
8633;DHT22;4354;49.832;10.746;2022-12-10T01:49:51;-4.60;99.90
8633;DHT22;4354;49.832;10.746;2022-12-10T01:52:18;-4.60;99.90
8633;DHT22;4354;49.832;10.746;2022-12-10T01:54:46;-4.50;99.90
8633;DHT22;4354;49.832;10.746;2022-12-10T01:59:44;-4.60;99.90
8633;DHT22;4354;49.832;10.746;2022-12-10T02:13:38;-4.40;99.90
8633;DHT22;4354;49.832;10.746;2022-12-10T02:16:13;-4.30;99.90
8633;DHT22;4354;49.832;10.746;2022-12-10T02:18:55;-4.20;99.90
8633;DHT22;4354;49.832;10.746;2022-12-10T02:21:29;-4.10;99.90
8633;DHT22;4354;49.832;10.746;2022-12-10T02:24:00;-4.00;99.90
8633;DHT22;4354;49.832;10.746;2022-12-10T02:27:12;-4.10;99.90
8633;DHT22;4354;49.832;10.746;2022-12-10T02:29:20;-4.20;99.90
8633;DHT22;4354;49.832;10.746;2022-12-10T02:32:11;-4.20;99.90
8633;DHT22;4354;49.832;10.746;2022-12-10T02:34:46;-4.20;99.90
8633;DHT22;4354;49.832;10.746;2022-12-10T02:37:36;-4.20;99.90
8633;DHT22;4354;49.832;10.746;2022-12-10T02:40:08;-4.10;99.90
8633;DHT22;4354;49.832;10.746;2022-12-10T02:42:39;-4.10;99.90
8633;DHT22;4354;49.832;10.746;2022-12-10T02:45:08;-4.00;99.90
8633;DHT22;4354;49.832;10.746;2022-12-10T02:47:36;-3.80;99.90
8633;DHT22;4354;49.832;10.746;2022-12-10T02:50:03;-3.80;99.90
8633;DHT22;4354;49.832;10.746;2022-12-10T02:52:31;-3.60;99.90
8633;DHT22;4354;49.832;10.746;2022-12-10T02:54:58;-3.60;99.90
8633;DHT22;4354;49.832;10.746;2022-12-10T03:00:10;-3.40;99.90
8633;DHT22;4354;49.832;10.746;2022-12-10T03:08:45;-3.20;99.90
8633;DHT22;4354;49.832;10.746;2022-12-10T03:11:17;-3.20;99.90
8633;DHT22;4354;49.832;10.746;2022-12-10T03:13:55;-3.20;99.90
8633;DHT22;4354;49.832;10.746;2022-12-10T03:16:25;-3.20;99.90
8633;DHT22;4354;49.832;10.746;2022-12-10T03:18:58;-3.20;99.90
8633;DHT22;4354;49.832;10.746;2022-12-10T03:21:28;-3.20;99.90
8633;DHT22;4354;49.832;10.746;2022-12-10T03:23:56;-3.20;99.90
8633;DHT22;4354;49.832;10.746;2022-12-10T03:26:23;-3.10;99.90
8633;DHT22;4354;49.832;10.746;2022-12-10T03:29:01;-3.10;99.90
8633;DHT22;4354;49.832;10.746;2022-12-10T03:31:31;-3.10;99.90
8633;DHT22;4354;49.832;10.746;2022-12-10T03:33:58;-3.10;99.90
8633;DHT22;4354;49.832;10.746;2022-12-10T03:36:27;-3.10;99.90
8633;DHT22;4354;49.832;10.746;2022-12-10T03:38:55;-3.10;99.90
8633;DHT22;4354;49.832;10.746;2022-12-10T03:41:22;-3.00;99.90
8633;DHT22;4354;49.832;10.746;2022-12-10T03:43:54;-3.00;99.90
8633;DHT22;4354;49.832;10.746;2022-12-10T03:46:25;-2.90;99.90
8633;DHT22;4354;49.832;10.746;2022-12-10T03:48:53;-2.90;99.90
8633;DHT22;4354;49.832;10.746;2022-12-10T03:51:21;-2.90;99.90
8633;DHT22;4354;49.832;10.746;2022-12-10T03:53:48;-2.90;99.90
8633;DHT22;4354;49.832;10.746;2022-12-10T03:56:17;-2.80;99.90
8633;DHT22;4354;49.832;10.746;2022-12-10T03:58:44;-2.80;99.90
8633;DHT22;4354;49.832;10.746;2022-12-10T04:01:10;-2.90;99.90
8633;DHT22;4354;49.832;10.746;2022-12-10T04:03:40;-2.80;99.90
8633;DHT22;4354;49.832;10.746;2022-12-10T04:06:12;-2.80;99.90
8633;DHT22;4354;49.832;10.746;2022-12-10T04:08:39;-2.80;99.90
8633;DHT22;4354;49.832;10.746;2022-12-10T04:11:11;-2.80;99.90
8633;DHT22;4354;49.832;10.746;2022-12-10T04:13:38;-2.80;99.90
8633;DHT22;4354;49.832;10.746;2022-12-10T04:16:25;-2.70;99.90
8633;DHT22;4354;49.832;10.746;2022-12-10T04:19:06;-2.70;99.90
8633;DHT22;4354;49.832;10.746;2022-12-10T04:21:34;-2.60;99.90
8633;DHT22;4354;49.832;10.746;2022-12-10T04:24:25;-2.60;99.90
8633;DHT22;4354;49.832;10.746;2022-12-10T04:27:33;-2.60;99.90
8633;DHT22;4354;49.832;10.746;2022-12-10T04:30:04;-2.50;99.90
8633;DHT22;4354;49.832;10.746;2022-12-10T04:32:31;-2.50;99.90
8633;DHT22;4354;49.832;10.746;2022-12-10T04:34:58;-2.50;99.90
8633;DHT22;4354;49.832;10.746;2022-12-10T04:37:26;-2.50;99.90
8633;DHT22;4354;49.832;10.746;2022-12-10T04:39:53;-2.40;99.90
8633;DHT22;4354;49.832;10.746;2022-12-10T04:42:23;-2.40;99.90
8633;DHT22;4354;49.832;10.746;2022-12-10T04:44:49;-2.40;99.90
8633;DHT22;4354;49.832;10.746;2022-12-10T04:47:16;-2.40;99.90
8633;DHT22;4354;49.832;10.746;2022-12-10T04:49:43;-2.40;99.90
8633;DHT22;4354;49.832;10.746;2022-12-10T04:52:12;-2.30;99.90
8633;DHT22;4354;49.832;10.746;2022-12-10T04:54:40;-2.30;99.90
8633;DHT22;4354;49.832;10.746;2022-12-10T04:57:07;-2.30;99.90
8633;DHT22;4354;49.832;10.746;2022-12-10T04:59:35;-2.30;99.90
8633;DHT22;4354;49.832;10.746;2022-12-10T05:02:03;-2.30;99.90
8633;DHT22;4354;49.832;10.746;2022-12-10T05:04:29;-2.30;99.90
8633;DHT22;4354;49.832;10.746;2022-12-10T05:06:56;-2.30;99.90
8633;DHT22;4354;49.832;10.746;2022-12-10T05:09:23;-2.40;99.90
8633;DHT22;4354;49.832;10.746;2022-12-10T05:11:50;-2.30;99.90
8633;DHT22;4354;49.832;10.746;2022-12-10T05:14:16;-2.30;99.90
8633;DHT22;4354;49.832;10.746;2022-12-10T05:16:43;-2.30;99.90
8633;DHT22;4354;49.832;10.746;2022-12-10T05:19:11;-2.30;99.90
8633;DHT22;4354;49.832;10.746;2022-12-10T05:21:40;-2.30;99.90
8633;DHT22;4354;49.832;10.746;2022-12-10T05:24:26;-2.20;99.90
8633;DHT22;4354;49.832;10.746;2022-12-10T05:26:52;-2.30;99.90
8633;DHT22;4354;49.832;10.746;2022-12-10T05:29:19;-2.30;99.90
8633;DHT22;4354;49.832;10.746;2022-12-10T05:31:46;-2.30;99.90
8633;DHT22;4354;49.832;10.746;2022-12-10T05:34:13;-2.20;99.90
8633;DHT22;4354;49.832;10.746;2022-12-10T05:36:40;-2.20;99.90
8633;DHT22;4354;49.832;10.746;2022-12-10T05:39:07;-2.20;99.90
8633;DHT22;4354;49.832;10.746;2022-12-10T05:41:36;-2.20;99.90
8633;DHT22;4354;49.832;10.746;2022-12-10T05:44:03;-2.20;99.90
8633;DHT22;4354;49.832;10.746;2022-12-10T05:46:32;-2.30;99.90
8633;DHT22;4354;49.832;10.746;2022-12-10T05:49:00;-2.30;99.90
8633;DHT22;4354;49.832;10.746;2022-12-10T05:51:29;-2.30;99.90
8633;DHT22;4354;49.832;10.746;2022-12-10T05:53:58;-2.30;99.90
8633;DHT22;4354;49.832;10.746;2022-12-10T05:56:26;-2.30;99.90
8633;DHT22;4354;49.832;10.746;2022-12-10T05:58:58;-2.30;99.90
8633;DHT22;4354;49.832;10.746;2022-12-10T06:01:28;-2.30;99.90
8633;DHT22;4354;49.832;10.746;2022-12-10T06:03:58;-2.20;99.90
8633;DHT22;4354;49.832;10.746;2022-12-10T06:06:28;-2.20;99.90
8633;DHT22;4354;49.832;10.746;2022-12-10T06:08:55;-2.20;99.90
8633;DHT22;4354;49.832;10.746;2022-12-10T06:11:23;-2.20;99.90
8633;DHT22;4354;49.832;10.746;2022-12-10T06:13:50;-2.10;99.90
8633;DHT22;4354;49.832;10.746;2022-12-10T06:16:22;-2.10;99.90
8633;DHT22;4354;49.832;10.746;2022-12-10T06:18:50;-2.20;99.90
8633;DHT22;4354;49.832;10.746;2022-12-10T06:21:17;-2.10;99.90
8633;DHT22;4354;49.832;10.746;2022-12-10T06:23:45;-2.10;99.90
8633;DHT22;4354;49.832;10.746;2022-12-10T06:26:16;-2.10;99.90
8633;DHT22;4354;49.832;10.746;2022-12-10T06:28:45;-2.10;99.90
8633;DHT22;4354;49.832;10.746;2022-12-10T06:31:12;-2.00;99.90
8633;DHT22;4354;49.832;10.746;2022-12-10T06:33:40;-2.10;99.90
8633;DHT22;4354;49.832;10.746;2022-12-10T06:36:08;-2.10;99.90
8633;DHT22;4354;49.832;10.746;2022-12-10T06:38:36;-2.00;99.90
8633;DHT22;4354;49.832;10.746;2022-12-10T06:41:04;-2.00;99.90
8633;DHT22;4354;49.832;10.746;2022-12-10T06:43:32;-2.00;99.90
8633;DHT22;4354;49.832;10.746;2022-12-10T06:45:59;-2.00;99.90
8633;DHT22;4354;49.832;10.746;2022-12-10T06:48:29;-2.00;99.90
8633;DHT22;4354;49.832;10.746;2022-12-10T06:50:56;-1.90;99.90
8633;DHT22;4354;49.832;10.746;2022-12-10T06:53:23;-2.00;99.90
8633;DHT22;4354;49.832;10.746;2022-12-10T06:55:50;-1.90;99.90
8633;DHT22;4354;49.832;10.746;2022-12-10T06:58:16;-1.80;99.90
8633;DHT22;4354;49.832;10.746;2022-12-10T07:00:43;-1.80;99.90
8633;DHT22;4354;49.832;10.746;2022-12-10T07:03:10;-1.80;99.90
8633;DHT22;4354;49.832;10.746;2022-12-10T07:05:37;-1.90;99.90
8633;DHT22;4354;49.832;10.746;2022-12-10T07:08:04;-1.90;99.90
8633;DHT22;4354;49.832;10.746;2022-12-10T07:10:30;-1.80;99.90
8633;DHT22;4354;49.832;10.746;2022-12-10T07:12:57;-1.80;99.90
8633;DHT22;4354;49.832;10.746;2022-12-10T07:15:24;-1.80;99.90
8633;DHT22;4354;49.832;10.746;2022-12-10T07:17:54;-1.80;99.90
8633;DHT22;4354;49.832;10.746;2022-12-10T07:20:20;-1.80;99.90
8633;DHT22;4354;49.832;10.746;2022-12-10T07:22:47;-1.80;99.90
8633;DHT22;4354;49.832;10.746;2022-12-10T07:25:14;-1.80;99.90
8633;DHT22;4354;49.832;10.746;2022-12-10T07:27:41;-1.80;99.90
8633;DHT22;4354;49.832;10.746;2022-12-10T07:30:08;-1.70;99.90
8633;DHT22;4354;49.832;10.746;2022-12-10T07:32:35;-1.70;99.90
8633;DHT22;4354;49.832;10.746;2022-12-10T07:35:04;-1.60;99.90
8633;DHT22;4354;49.832;10.746;2022-12-10T07:37:30;-1.60;99.90
8633;DHT22;4354;49.832;10.746;2022-12-10T07:39:57;-1.60;99.90
8633;DHT22;4354;49.832;10.746;2022-12-10T07:42:24;-1.50;99.90
8633;DHT22;4354;49.832;10.746;2022-12-10T07:44:51;-1.50;99.90
8633;DHT22;4354;49.832;10.746;2022-12-10T07:47:17;-1.50;99.90
8633;DHT22;4354;49.832;10.746;2022-12-10T07:49:44;-1.40;99.90
8633;DHT22;4354;49.832;10.746;2022-12-10T07:52:11;-1.40;99.90
8633;DHT22;4354;49.832;10.746;2022-12-10T07:54:38;-1.40;99.90
8633;DHT22;4354;49.832;10.746;2022-12-10T07:57:05;-1.30;99.90
8633;DHT22;4354;49.832;10.746;2022-12-10T07:59:31;-1.30;99.90
8633;DHT22;4354;49.832;10.746;2022-12-10T08:01:58;-1.30;99.90
8633;DHT22;4354;49.832;10.746;2022-12-10T08:04:32;-1.20;99.90
8633;DHT22;4354;49.832;10.746;2022-12-10T08:06:59;-1.20;99.90
8633;DHT22;4354;49.832;10.746;2022-12-10T08:09:26;-1.10;99.90
8633;DHT22;4354;49.832;10.746;2022-12-10T08:11:53;-1.00;99.90
8633;DHT22;4354;49.832;10.746;2022-12-10T08:14:20;-1.00;99.90
8633;DHT22;4354;49.832;10.746;2022-12-10T08:16:46;-1.00;99.90
8633;DHT22;4354;49.832;10.746;2022-12-10T08:19:13;-0.90;99.90
8633;DHT22;4354;49.832;10.746;2022-12-10T08:21:47;-0.90;99.90
8633;DHT22;4354;49.832;10.746;2022-12-10T08:24:14;-0.90;99.90
8633;DHT22;4354;49.832;10.746;2022-12-10T08:26:41;-0.80;99.90
8633;DHT22;4354;49.832;10.746;2022-12-10T08:29:08;-0.80;99.90
8633;DHT22;4354;49.832;10.746;2022-12-10T08:31:34;-0.70;99.90
8633;DHT22;4354;49.832;10.746;2022-12-10T08:34:04;-0.70;99.90
8633;DHT22;4354;49.832;10.746;2022-12-10T08:36:36;-0.70;99.90
8633;DHT22;4354;49.832;10.746;2022-12-10T08:39:03;-0.60;99.90
8633;DHT22;4354;49.832;10.746;2022-12-10T08:41:30;-0.60;99.90
8633;DHT22;4354;49.832;10.746;2022-12-10T08:43:57;-0.60;99.90
8633;DHT22;4354;49.832;10.746;2022-12-10T08:46:23;-0.50;99.90
8633;DHT22;4354;49.832;10.746;2022-12-10T08:48:52;-0.40;99.90
8633;DHT22;4354;49.832;10.746;2022-12-10T08:51:21;-0.40;99.90
8633;DHT22;4354;49.832;10.746;2022-12-10T08:53:49;-0.40;99.90
8633;DHT22;4354;49.832;10.746;2022-12-10T08:56:16;-0.40;99.90
8633;DHT22;4354;49.832;10.746;2022-12-10T08:58:42;-0.40;99.90
8633;DHT22;4354;49.832;10.746;2022-12-10T09:01:17;-0.30;99.90
8633;DHT22;4354;49.832;10.746;2022-12-10T09:03:44;-0.30;99.90
8633;DHT22;4354;49.832;10.746;2022-12-10T09:06:14;-0.30;99.90
8633;DHT22;4354;49.832;10.746;2022-12-10T09:08:43;-0.30;99.90
8633;DHT22;4354;49.832;10.746;2022-12-10T09:11:15;-0.30;99.90
8633;DHT22;4354;49.832;10.746;2022-12-10T09:13:43;-0.20;99.90
8633;DHT22;4354;49.832;10.746;2022-12-10T09:16:10;-0.20;99.90
8633;DHT22;4354;49.832;10.746;2022-12-10T09:18:37;-0.10;99.90
8633;DHT22;4354;49.832;10.746;2022-12-10T09:21:09;0.00;99.90
8633;DHT22;4354;49.832;10.746;2022-12-10T09:23:40;0.00;99.90
8633;DHT22;4354;49.832;10.746;2022-12-10T09:26:09;0.10;99.90
8633;DHT22;4354;49.832;10.746;2022-12-10T09:28:37;0.10;99.90
8633;DHT22;4354;49.832;10.746;2022-12-10T09:31:06;0.20;99.90
8633;DHT22;4354;49.832;10.746;2022-12-10T09:33:42;0.40;99.90
8633;DHT22;4354;49.832;10.746;2022-12-10T09:36:11;0.50;99.90
8633;DHT22;4354;49.832;10.746;2022-12-10T09:38:40;0.60;99.90
8633;DHT22;4354;49.832;10.746;2022-12-10T09:43:48;0.80;99.90
8633;DHT22;4354;49.832;10.746;2022-12-10T09:49:33;1.00;99.90
8633;DHT22;4354;49.832;10.746;2022-12-10T09:52:06;1.10;99.90
8633;DHT22;4354;49.832;10.746;2022-12-10T09:54:43;1.10;99.90
8633;DHT22;4354;49.832;10.746;2022-12-10T09:57:25;1.20;99.90
8633;DHT22;4354;49.832;10.746;2022-12-10T09:59:55;1.20;99.90
8633;DHT22;4354;49.832;10.746;2022-12-10T10:02:28;1.30;99.90
8633;DHT22;4354;49.832;10.746;2022-12-10T10:05:28;1.30;99.90
8633;DHT22;4354;49.832;10.746;2022-12-10T10:07:59;1.40;99.90
8633;DHT22;4354;49.832;10.746;2022-12-10T10:10:36;1.50;99.90
8633;DHT22;4354;49.832;10.746;2022-12-10T10:15:36;1.50;99.90
8633;DHT22;4354;49.832;10.746;2022-12-10T10:20:45;1.50;99.90
8633;DHT22;4354;49.832;10.746;2022-12-10T10:23:14;1.50;99.90
8633;DHT22;4354;49.832;10.746;2022-12-10T10:25:42;1.50;99.90
8633;DHT22;4354;49.832;10.746;2022-12-10T10:28:20;1.60;99.90
8633;DHT22;4354;49.832;10.746;2022-12-10T10:30:47;1.70;99.90
8633;DHT22;4354;49.832;10.746;2022-12-10T10:33:16;2.00;99.90
8633;DHT22;4354;49.832;10.746;2022-12-10T10:36:03;2.50;99.90
8633;DHT22;4354;49.832;10.746;2022-12-10T10:38:36;3.80;99.90
8633;DHT22;4354;49.832;10.746;2022-12-10T10:41:04;4.70;99.90
8633;DHT22;4354;49.832;10.746;2022-12-10T10:43:39;4.70;99.90
8633;DHT22;4354;49.832;10.746;2022-12-10T10:46:31;4.80;99.90
8633;DHT22;4354;49.832;10.746;2022-12-10T10:51:51;5.60;99.90
8633;DHT22;4354;49.832;10.746;2022-12-10T10:54:41;6.00;99.90
8633;DHT22;4354;49.832;10.746;2022-12-10T10:57:28;6.50;99.90
8633;DHT22;4354;49.832;10.746;2022-12-10T11:00:02;6.60;99.90
8633;DHT22;4354;49.832;10.746;2022-12-10T11:02:37;6.90;99.90
8633;DHT22;4354;49.832;10.746;2022-12-10T11:05:30;7.00;99.90
8633;DHT22;4354;49.832;10.746;2022-12-10T11:08:06;7.40;99.90
8633;DHT22;4354;49.832;10.746;2022-12-10T11:10:47;7.70;99.90
8633;DHT22;4354;49.832;10.746;2022-12-10T11:13:26;8.00;99.90
8633;DHT22;4354;49.832;10.746;2022-12-10T11:16:00;8.00;99.90
8633;DHT22;4354;49.832;10.746;2022-12-10T11:18:41;8.10;99.90
8633;DHT22;4354;49.832;10.746;2022-12-10T11:23:41;6.70;99.90
8633;DHT22;4354;49.832;10.746;2022-12-10T11:26:48;5.90;99.90
8633;DHT22;4354;49.832;10.746;2022-12-10T11:32:32;4.60;99.90
8633;DHT22;4354;49.832;10.746;2022-12-10T11:35:11;4.60;99.90
8633;DHT22;4354;49.832;10.746;2022-12-10T11:48:42;3.50;99.90
8633;DHT22;4354;49.832;10.746;2022-12-10T11:51:44;3.30;99.90
8633;DHT22;4354;49.832;10.746;2022-12-10T12:00:03;3.00;99.90
8633;DHT22;4354;49.832;10.746;2022-12-10T12:02:55;2.90;99.90
8633;DHT22;4354;49.832;10.746;2022-12-10T12:11:21;2.60;99.90
8633;DHT22;4354;49.832;10.746;2022-12-10T12:16:40;2.60;99.90
8633;DHT22;4354;49.832;10.746;2022-12-10T12:19:14;2.50;99.90
8633;DHT22;4354;49.832;10.746;2022-12-10T12:21:43;2.50;99.90
8633;DHT22;4354;49.832;10.746;2022-12-10T12:24:20;2.40;99.90
8633;DHT22;4354;49.832;10.746;2022-12-10T12:26:49;2.30;99.90
8633;DHT22;4354;49.832;10.746;2022-12-10T12:29:25;2.30;99.90
8633;DHT22;4354;49.832;10.746;2022-12-10T12:32:19;2.20;99.90
8633;DHT22;4354;49.832;10.746;2022-12-10T12:34:59;2.20;99.90
8633;DHT22;4354;49.832;10.746;2022-12-10T12:37:45;2.10;99.90
8633;DHT22;4354;49.832;10.746;2022-12-10T12:43:03;2.30;99.90
8633;DHT22;4354;49.832;10.746;2022-12-10T12:45:38;2.50;99.90
8633;DHT22;4354;49.832;10.746;2022-12-10T12:50:57;2.60;99.90
8633;DHT22;4354;49.832;10.746;2022-12-10T12:53:25;2.60;99.90
8633;DHT22;4354;49.832;10.746;2022-12-10T13:01:51;2.50;99.90
8633;DHT22;4354;49.832;10.746;2022-12-10T13:04:20;2.50;99.90
8633;DHT22;4354;49.832;10.746;2022-12-10T13:09:51;2.40;99.90
8633;DHT22;4354;49.832;10.746;2022-12-10T13:12:28;2.50;99.90
8633;DHT22;4354;49.832;10.746;2022-12-10T13:17:35;2.50;99.90
8633;DHT22;4354;49.832;10.746;2022-12-10T13:23:03;2.60;99.90
8633;DHT22;4354;49.832;10.746;2022-12-10T13:28:50;2.50;99.90
8633;DHT22;4354;49.832;10.746;2022-12-10T13:31:20;2.60;99.90
8633;DHT22;4354;49.832;10.746;2022-12-10T13:33:49;2.60;99.90
8633;DHT22;4354;49.832;10.746;2022-12-10T13:36:35;2.60;99.90
8633;DHT22;4354;49.832;10.746;2022-12-10T13:45:02;2.50;99.90
8633;DHT22;4354;49.832;10.746;2022-12-10T13:50:35;2.50;99.90
8633;DHT22;4354;49.832;10.746;2022-12-10T14:01:17;2.30;99.90
8633;DHT22;4354;49.832;10.746;2022-12-10T14:06:37;2.20;99.90
8633;DHT22;4354;49.832;10.746;2022-12-10T14:09:19;2.10;99.90
8633;DHT22;4354;49.832;10.746;2022-12-10T14:11:51;2.00;99.90
8633;DHT22;4354;49.832;10.746;2022-12-10T14:14:38;2.00;99.90
8633;DHT22;4354;49.832;10.746;2022-12-10T14:17:14;1.90;99.90
8633;DHT22;4354;49.832;10.746;2022-12-10T14:19:43;1.90;99.90
8633;DHT22;4354;49.832;10.746;2022-12-10T14:22:30;1.80;99.90
8633;DHT22;4354;49.832;10.746;2022-12-10T14:25:04;1.70;99.90
8633;DHT22;4354;49.832;10.746;2022-12-10T14:27:33;1.60;99.90
8633;DHT22;4354;49.832;10.746;2022-12-10T14:30:22;1.60;99.90
8633;DHT22;4354;49.832;10.746;2022-12-10T14:32:59;1.50;99.90
8633;DHT22;4354;49.832;10.746;2022-12-10T14:35:27;1.40;99.90
8633;DHT22;4354;49.832;10.746;2022-12-10T14:37:57;1.20;99.90
8633;DHT22;4354;49.832;10.746;2022-12-10T14:40:31;1.20;99.90
8633;DHT22;4354;49.832;10.746;2022-12-10T14:43:17;1.20;99.90
8633;DHT22;4354;49.832;10.746;2022-12-10T14:45:53;1.10;99.90
8633;DHT22;4354;49.832;10.746;2022-12-10T14:48:22;1.00;99.90
8633;DHT22;4354;49.832;10.746;2022-12-10T14:50:50;1.00;99.90
8633;DHT22;4354;49.832;10.746;2022-12-10T14:53:25;0.90;99.90
8633;DHT22;4354;49.832;10.746;2022-12-10T14:55:59;0.90;99.90
8633;DHT22;4354;49.832;10.746;2022-12-10T15:01:19;0.70;99.90
8633;DHT22;4354;49.832;10.746;2022-12-10T15:03:49;0.70;99.90
8633;DHT22;4354;49.832;10.746;2022-12-10T15:06:17;0.60;99.90
8633;DHT22;4354;49.832;10.746;2022-12-10T15:08:46;0.60;99.90
8633;DHT22;4354;49.832;10.746;2022-12-10T15:11:17;0.50;99.90
8633;DHT22;4354;49.832;10.746;2022-12-10T15:13:51;0.50;99.90
8633;DHT22;4354;49.832;10.746;2022-12-10T15:18:55;0.40;99.90
8633;DHT22;4354;49.832;10.746;2022-12-10T15:21:24;0.30;99.90
8633;DHT22;4354;49.832;10.746;2022-12-10T15:24:11;0.30;99.90
8633;DHT22;4354;49.832;10.746;2022-12-10T15:26:46;0.20;99.90
8633;DHT22;4354;49.832;10.746;2022-12-10T15:31:59;0.10;99.90
8633;DHT22;4354;49.832;10.746;2022-12-10T15:34:29;0.00;99.90
8633;DHT22;4354;49.832;10.746;2022-12-10T15:37:00;0.00;99.90
8633;DHT22;4354;49.832;10.746;2022-12-10T15:39:47;-0.10;99.90
8633;DHT22;4354;49.832;10.746;2022-12-10T15:45:11;-0.20;99.90
8633;DHT22;4354;49.832;10.746;2022-12-10T15:47:39;-0.20;99.90
8633;DHT22;4354;49.832;10.746;2022-12-10T15:50:06;-0.10;99.90
8633;DHT22;4354;49.832;10.746;2022-12-10T15:52:33;-0.10;99.90
8633;DHT22;4354;49.832;10.746;2022-12-10T15:55:01;-0.10;99.90
8633;DHT22;4354;49.832;10.746;2022-12-10T15:57:34;0.00;99.90
8633;DHT22;4354;49.832;10.746;2022-12-10T16:00:13;0.10;99.90
8633;DHT22;4354;49.832;10.746;2022-12-10T16:02:57;0.10;99.90
8633;DHT22;4354;49.832;10.746;2022-12-10T16:05:29;0.20;99.90
8633;DHT22;4354;49.832;10.746;2022-12-10T16:08:22;0.20;99.90
8633;DHT22;4354;49.832;10.746;2022-12-10T16:10:51;0.30;99.90
8633;DHT22;4354;49.832;10.746;2022-12-10T16:13:28;0.30;99.90
8633;DHT22;4354;49.832;10.746;2022-12-10T16:16:16;0.40;99.90
8633;DHT22;4354;49.832;10.746;2022-12-10T16:18:44;0.40;99.90
8633;DHT22;4354;49.832;10.746;2022-12-10T16:21:11;0.40;99.90
8633;DHT22;4354;49.832;10.746;2022-12-10T16:23:38;0.40;99.90
8633;DHT22;4354;49.832;10.746;2022-12-10T16:26:18;0.50;99.90
8633;DHT22;4354;49.832;10.746;2022-12-10T16:28:45;0.50;99.90
8633;DHT22;4354;49.832;10.746;2022-12-10T16:31:16;0.50;99.90
8633;DHT22;4354;49.832;10.746;2022-12-10T16:33:44;0.50;99.90
8633;DHT22;4354;49.832;10.746;2022-12-10T16:36:11;0.50;99.90
8633;DHT22;4354;49.832;10.746;2022-12-10T16:38:38;0.50;99.90
8633;DHT22;4354;49.832;10.746;2022-12-10T16:41:17;0.50;99.90
8633;DHT22;4354;49.832;10.746;2022-12-10T16:43:44;0.50;99.90
8633;DHT22;4354;49.832;10.746;2022-12-10T16:46:11;0.50;99.90
8633;DHT22;4354;49.832;10.746;2022-12-10T16:48:39;0.50;99.90
8633;DHT22;4354;49.832;10.746;2022-12-10T16:51:13;0.50;99.90
8633;DHT22;4354;49.832;10.746;2022-12-10T16:53:41;0.50;99.90
8633;DHT22;4354;49.832;10.746;2022-12-10T16:56:13;0.50;99.90
8633;DHT22;4354;49.832;10.746;2022-12-10T16:58:41;0.50;99.90
8633;DHT22;4354;49.832;10.746;2022-12-10T17:01:34;0.40;99.90
8633;DHT22;4354;49.832;10.746;2022-12-10T17:04:02;0.50;99.90
8633;DHT22;4354;49.832;10.746;2022-12-10T17:06:29;0.40;99.90
8633;DHT22;4354;49.832;10.746;2022-12-10T17:08:56;0.40;99.90
8633;DHT22;4354;49.832;10.746;2022-12-10T17:11:24;0.40;99.90
8633;DHT22;4354;49.832;10.746;2022-12-10T17:14:23;0.40;99.90
8633;DHT22;4354;49.832;10.746;2022-12-10T17:16:51;0.30;99.90
8633;DHT22;4354;49.832;10.746;2022-12-10T17:19:19;0.30;99.90
8633;DHT22;4354;49.832;10.746;2022-12-10T17:21:49;0.20;99.90
8633;DHT22;4354;49.832;10.746;2022-12-10T17:24:16;0.10;99.90
8633;DHT22;4354;49.832;10.746;2022-12-10T17:26:45;0.10;99.90
8633;DHT22;4354;49.832;10.746;2022-12-10T17:29:15;0.00;99.90
8633;DHT22;4354;49.832;10.746;2022-12-10T17:31:43;0.00;99.90
8633;DHT22;4354;49.832;10.746;2022-12-10T17:34:12;0.00;99.90
8633;DHT22;4354;49.832;10.746;2022-12-10T17:36:40;-0.10;99.90
8633;DHT22;4354;49.832;10.746;2022-12-10T17:39:15;-0.20;99.90
8633;DHT22;4354;49.832;10.746;2022-12-10T17:41:48;-0.10;99.90
8633;DHT22;4354;49.832;10.746;2022-12-10T17:44:15;-0.10;99.90
8633;DHT22;4354;49.832;10.746;2022-12-10T17:46:41;-0.20;99.90
8633;DHT22;4354;49.832;10.746;2022-12-10T17:49:12;-0.20;99.90
8633;DHT22;4354;49.832;10.746;2022-12-10T17:51:40;-0.20;99.90
8633;DHT22;4354;49.832;10.746;2022-12-10T17:54:07;-0.20;99.90
8633;DHT22;4354;49.832;10.746;2022-12-10T17:56:34;-0.20;99.90
8633;DHT22;4354;49.832;10.746;2022-12-10T17:59:01;-0.20;99.90
8633;DHT22;4354;49.832;10.746;2022-12-10T18:01:28;-0.20;99.90
8633;DHT22;4354;49.832;10.746;2022-12-10T18:03:57;-0.30;99.90
8633;DHT22;4354;49.832;10.746;2022-12-10T18:06:27;-0.30;99.90
8633;DHT22;4354;49.832;10.746;2022-12-10T18:08:57;-0.30;99.90
8633;DHT22;4354;49.832;10.746;2022-12-10T18:11:28;-0.30;99.90
8633;DHT22;4354;49.832;10.746;2022-12-10T18:13:55;-0.30;99.90
8633;DHT22;4354;49.832;10.746;2022-12-10T18:16:25;-0.30;99.90
8633;DHT22;4354;49.832;10.746;2022-12-10T18:18:54;-0.30;99.90
8633;DHT22;4354;49.832;10.746;2022-12-10T18:21:21;-0.30;99.90